M I D A S
Marine Information and Data Acquisition System
Tripno 977 of the Zeeleeuw from 2005-10-24 06:41:04 to 2005-10-24 14:23:06
Back to CruiseResearch ActivitiesStationsMapUnderway DataData graphs

EquipmentUnitsComment
TimeDGPSUTC
LatitudeDGPSDM.mWGS84
LongitudeDGPSDM.mWGS84
HeadingGyrodeg 
SOGDGPSknotsSpeed over ground
COGDGPSdegCourse over ground
DepthEcho soundermeters200 kHz
Missing or incorrect values are displayed as -999
Navigation data collected by the RV Zeeleeuw from 2005-10-24 06:42:02 to 2005-10-24 14:33:23
                                                                                    Next 1000 lines
Time Latitude Longitude Heading SOG COG Depth
2005-10-24 06:42:11 51°13.601 2°56.094 111.4 1.1 286 7.6
2005-10-24 06:42:17 51°13.602 2°56.091 111.4 1.5 291 7.8
2005-10-24 06:42:22 51°13.603 2°56.087 111.7 1.8 290 8
2005-10-24 06:42:27 51°13.604 2°56.082 112.3 2 291 -999
2005-10-24 06:42:33 51°13.605 2°56.077 112.9 2.3 292 -999
2005-10-24 06:42:37 51°13.607 2°56.072 113.2 2.5 292 -999
2005-10-24 06:42:43 51°13.608 2°56.066 113.2 2.7 294 -999
2005-10-24 06:42:48 51°13.61 2°56.06 113.2 2.7 293 -999
2005-10-24 06:42:53 51°13.612 2°56.054 113.4 2.8 293 -999
2005-10-24 06:42:58 51°13.613 2°56.048 113.6 3 293 -999
2005-10-24 06:43:02 51°13.614 2°56.043 113.7 3.1 292 -999
2005-10-24 06:43:07 51°13.616 2°56.036 113.8 3.2 292 -999
2005-10-24 06:43:13 51°13.618 2°56.028 113.8 3.3 292 -999
2005-10-24 06:43:17 51°13.62 2°56.022 113.8 3.5 292 -999
2005-10-24 06:43:23 51°13.622 2°56.013 113.8 3.6 289 -999
2005-10-24 06:43:27 51°13.623 2°56.007 114.3 3.7 290 -999
2005-10-24 06:43:33 51°13.626 2°55.998 114.8 3.7 291 -999
2005-10-24 06:43:38 51°13.628 2°55.99 115.6 3.8 292 -999
2005-10-24 06:43:43 51°13.63 2°55.982 116.8 3.9 292 -999
2005-10-24 06:43:47 51°13.632 2°55.976 118.5 4 294 -999
2005-10-24 06:43:53 51°13.635 2°55.966 119.4 4.2 295 -999
2005-10-24 06:43:58 51°13.637 2°55.957 120.4 4.4 296 -999
2005-10-24 06:44:03 51°13.64 2°55.948 120.8 4.5 297 -999
2005-10-24 06:44:07 51°13.643 2°55.941 121.3 4.6 298 -999
2005-10-24 06:44:13 51°13.647 2°55.93 121.9 4.7 298 -999
2005-10-24 06:44:18 51°13.65 2°55.921 121.9 4.7 299 -999
2005-10-24 06:44:23 51°13.653 2°55.911 121.4 4.8 298 -999
2005-10-24 06:44:28 51°13.656 2°55.902 120.7 4.8 298 -999
2005-10-24 06:44:33 51°13.659 2°55.893 119.8 4.8 298 -999
2005-10-24 06:44:37 51°13.662 2°55.885 118.4 4.8 297 -999
2005-10-24 06:44:43 51°13.665 2°55.874 117.4 4.7 296 -999
2005-10-24 06:44:47 51°13.667 2°55.867 115.5 4.6 296 -999
2005-10-24 06:44:53 51°13.67 2°55.856 114.3 4.5 294 -999
2005-10-24 06:44:57 51°13.672 2°55.849 112.4 4.4 293 -999
2005-10-24 06:45:03 51°13.674 2°55.839 110.3 4.2 291 -999
2005-10-24 06:45:07 51°13.676 2°55.832 107.6 4.1 289 -999
2005-10-24 06:45:13 51°13.678 2°55.821 105.7 4.1 287 -999
2005-10-24 06:45:17 51°13.679 2°55.815 103.1 4 284 -999
2005-10-24 06:45:23 51°13.68 2°55.804 100.6 4 281 -999
2005-10-24 06:45:28 51°13.681 2°55.796 97.6 4 279 -999
2005-10-24 06:45:33 51°13.682 2°55.788 95.1 3.8 277 -999
2005-10-24 06:45:38 51°13.682 2°55.78 92.9 3.6 276 -999
2005-10-24 06:45:43 51°13.682 2°55.772 91.6 3.4 274 -999
2005-10-24 06:45:47 51°13.683 2°55.767 90 3 274 -999
2005-10-24 06:45:53 51°13.683 2°55.761 88.1 2.4 271 -999
2005-10-24 06:45:57 51°13.683 2°55.758 85 1.8 273 12.7
2005-10-24 06:46:02 51°13.683 2°55.755 82.2 1.4 272 12.7
2005-10-24 06:46:07 51°13.683 2°55.753 79.3 1 277 12.8
2005-10-24 06:46:12 51°13.683 2°55.752 75.4 0.6 282 13
2005-10-24 06:46:17 51°13.684 2°55.752 71.1 0.4 328 13.2
2005-10-24 06:46:22 51°13.684 2°55.753 66.6 0.4 4 13.3
2005-10-24 06:46:27 51°13.686 2°55.753 61.4 0.8 22 13.4
2005-10-24 06:46:32 51°13.687 2°55.755 55.8 1 26 13.6
2005-10-24 06:46:37 51°13.689 2°55.756 49.8 1.3 29 13.9
2005-10-24 06:46:42 51°13.692 2°55.758 43.6 1.5 29 14.1
2005-10-24 06:46:47 51°13.694 2°55.759 37.5 1.8 24 14.7
2005-10-24 06:46:52 51°13.697 2°55.761 31.3 2 21 15.2
2005-10-24 06:46:57 51°13.7 2°55.762 25.4 2.2 15 15.4
2005-10-24 06:47:02 51°13.703 2°55.763 19.4 2.3 13 15.6
2005-10-24 06:47:07 51°13.707 2°55.763 13.2 2.6 4 14.7
2005-10-24 06:47:12 51°13.71 2°55.763 7.2 2.7 358 14.5
2005-10-24 06:47:17 51°13.715 2°55.761 1.1 2.9 355 14.5
2005-10-24 06:47:22 51°13.719 2°55.76 354.4 3.1 350 14.3
2005-10-24 06:47:27 51°13.724 2°55.757 347.1 3.5 339 14
2005-10-24 06:47:32 51°13.729 2°55.752 339.4 3.8 333 13
2005-10-24 06:47:37 51°13.734 2°55.746 332.5 4.3 328 12.1
2005-10-24 06:47:42 51°13.739 2°55.738 328 5.1 323 11
2005-10-24 06:47:47 51°13.746 2°55.73 325.4 5.6 322 10.1
2005-10-24 06:47:52 51°13.752 2°55.722 323.8 6 320 10.3
2005-10-24 06:47:57 51°13.759 2°55.712 323.3 6.5 321 10.2
2005-10-24 06:48:02 51°13.767 2°55.702 323.7 6.6 320 10.2
2005-10-24 06:48:07 51°13.775 2°55.692 324.8 7.3 321 10.3
2005-10-24 06:48:12 51°13.783 2°55.681 325.5 7.6 321 10.3
2005-10-24 06:48:17 51°13.792 2°55.671 325.8 7.9 323 10.7
2005-10-24 06:48:22 51°13.801 2°55.66 326.6 8.1 323 10.9
2005-10-24 06:48:27 51°13.811 2°55.65 328.4 8.4 326 11.5
2005-10-24 06:48:31 51°13.819 2°55.642 330.2 8.5 327 11.6
2005-10-24 06:48:37 51°13.831 2°55.63 332.9 8.7 329 11.4
2005-10-24 06:48:42 51°13.842 2°55.62 334.8 8.9 331 11.3
2005-10-24 06:48:47 51°13.854 2°55.612 337.2 9 333 11.2
2005-10-24 06:48:52 51°13.865 2°55.603 338.6 9.1 334 11.2
2005-10-24 06:48:57 51°13.876 2°55.594 339.4 9.2 334 11.2
2005-10-24 06:49:02 51°13.889 2°55.586 340.5 9.3 335 10.9
2005-10-24 06:49:07 51°13.901 2°55.578 340.9 9.5 336 10.6
2005-10-24 06:49:11 51°13.91 2°55.571 340.9 9.5 336 10.7
2005-10-24 06:49:17 51°13.925 2°55.56 341.2 9.6 336 11.1
2005-10-24 06:49:22 51°13.937 2°55.552 341.6 9.6 337 11
2005-10-24 06:49:27 51°13.95 2°55.544 341.6 9.7 337 11
2005-10-24 06:49:32 51°13.962 2°55.535 341.8 9.7 337 11
2005-10-24 06:49:37 51°13.974 2°55.526 341.8 9.7 337 11.3
2005-10-24 06:49:42 51°13.986 2°55.517 340.9 9.7 336 11.1
2005-10-24 06:49:47 51°13.999 2°55.509 340.9 9.7 337 11.5
2005-10-24 06:49:51 51°14.009 2°55.501 341.1 9.8 336 11.6
2005-10-24 06:49:57 51°14.024 2°55.491 341.1 9.8 336 11.3
2005-10-24 06:50:02 51°14.036 2°55.483 341.8 9.8 337 11.5
2005-10-24 06:50:07 51°14.049 2°55.474 341.9 9.8 337 11.1
2005-10-24 06:50:12 51°14.061 2°55.465 341.9 9.8 337 11.2
2005-10-24 06:50:17 51°14.074 2°55.457 342.1 9.9 337 11.6
2005-10-24 06:50:22 51°14.087 2°55.447 341.6 10.2 336 11.6
2005-10-24 06:50:27 51°14.1 2°55.438 340.8 10.3 336 11.3
2005-10-24 06:50:32 51°14.113 2°55.429 341.1 10.3 337 11.6
2005-10-24 06:50:37 51°14.126 2°55.419 341.1 10.4 335 11.6
2005-10-24 06:50:42 51°14.139 2°55.409 340.5 10.5 335 11.6
2005-10-24 06:50:47 51°14.153 2°55.399 339.5 10.6 334 11.6
2005-10-24 06:50:51 51°14.163 2°55.39 338.4 10.7 333 11.6
2005-10-24 06:50:57 51°14.179 2°55.375 336.8 10.8 330 11.6
2005-10-24 06:51:02 51°14.191 2°55.362 334.2 10.9 329 11.6
2005-10-24 06:51:07 51°14.204 2°55.347 331.3 11.1 325 11.5
2005-10-24 06:51:12 51°14.216 2°55.332 329.2 11.2 323 11.5
2005-10-24 06:51:17 51°14.228 2°55.315 327.3 11.3 321 11.5
2005-10-24 06:51:22 51°14.239 2°55.298 324.2 11.5 316 11.6
2005-10-24 06:51:27 51°14.25 2°55.279 321.1 11.5 314 11.5
2005-10-24 06:51:32 51°14.261 2°55.261 319.6 11.5 313 11.5
2005-10-24 06:51:37 51°14.272 2°55.241 318.2 11.5 313 11.5
2005-10-24 06:51:42 51°14.282 2°55.221 315.9 11.6 311 11.4
2005-10-24 06:51:47 51°14.292 2°55.201 314.6 11.8 309 11.6
2005-10-24 06:51:52 51°14.303 2°55.181 314.4 11.8 309 11.6
2005-10-24 06:51:57 51°14.313 2°55.161 314.6 11.8 310 11.6
2005-10-24 06:52:02 51°14.323 2°55.14 314.2 11.8 308 11.6
2005-10-24 06:52:07 51°14.334 2°55.12 314.4 11.8 309 11.7
2005-10-24 06:52:12 51°14.344 2°55.1 315.2 11.8 310 11.8
2005-10-24 06:52:17 51°14.355 2°55.081 316.2 11.9 312 11.7
2005-10-24 06:52:22 51°14.367 2°55.062 317.4 11.9 313 11.7
2005-10-24 06:52:27 51°14.379 2°55.044 319.9 11.9 316 11.9
2005-10-24 06:52:32 51°14.391 2°55.027 323.1 11.9 318 11.6
2005-10-24 06:52:37 51°14.404 2°55.01 325.1 11.8 319 11.5
2005-10-24 06:52:42 51°14.415 2°54.992 324 11.8 318 11.5
2005-10-24 06:52:47 51°14.427 2°54.972 321 11.6 314 11.4
2005-10-24 06:52:52 51°14.437 2°54.953 318.3 11.7 311 11.4
2005-10-24 06:52:57 51°14.447 2°54.932 314.9 11.7 309 11.4
2005-10-24 06:53:02 51°14.457 2°54.912 312.4 11.7 308 11.5
2005-10-24 06:53:07 51°14.466 2°54.89 311.1 11.8 305 11.3
2005-10-24 06:53:12 51°14.475 2°54.868 309.3 12 304 11.3
2005-10-24 06:53:17 51°14.484 2°54.846 307.6 12 303 11.3
2005-10-24 06:53:22 51°14.493 2°54.823 305.8 12.1 301 11.3
2005-10-24 06:53:27 51°14.501 2°54.799 304.2 12.1 300 11.3
2005-10-24 06:53:31 51°14.508 2°54.781 303.4 12.2 300 11.3
2005-10-24 06:53:37 51°14.518 2°54.752 302.8 12.2 299 11.3
2005-10-24 06:53:42 51°14.526 2°54.729 302.3 12.2 298 11.3
2005-10-24 06:53:47 51°14.534 2°54.705 301.4 12.2 299 11.2
2005-10-24 06:53:51 51°14.54 2°54.686 300.9 12.2 297 11.3
2005-10-24 06:53:57 51°14.55 2°54.657 299.7 12.3 297 11.3
2005-10-24 06:54:02 51°14.558 2°54.632 299.6 12.3 298 11.2
2005-10-24 06:54:07 51°14.565 2°54.608 299.7 12.4 297 11.2
2005-10-24 06:54:12 51°14.573 2°54.583 299.1 12.4 296 11.3
2005-10-24 06:54:17 51°14.581 2°54.559 298.5 12.4 296 11.2
2005-10-24 06:54:22 51°14.588 2°54.533 298.2 12.6 295 11.3
2005-10-24 06:54:27 51°14.596 2°54.508 297.8 12.7 295 11.3
2005-10-24 06:54:32 51°14.604 2°54.483 298.3 12.7 296 11.3
2005-10-24 06:54:37 51°14.611 2°54.458 298.8 12.7 296 11.2
2005-10-24 06:54:42 51°14.62 2°54.433 299.2 12.7 297 11.1
2005-10-24 06:54:47 51°14.627 2°54.408 299 12.7 296 11.1
2005-10-24 06:54:52 51°14.635 2°54.383 298.3 12.8 296 11.1
2005-10-24 06:54:57 51°14.642 2°54.357 297.6 12.8 295 11.2
2005-10-24 06:55:02 51°14.649 2°54.331 296.8 12.7 294 11.1
2005-10-24 06:55:07 51°14.657 2°54.305 296.1 12.7 293 11.2
2005-10-24 06:55:11 51°14.662 2°54.284 295.7 12.8 293 11.2
2005-10-24 06:55:17 51°14.67 2°54.253 295.4 12.8 293 11.2
2005-10-24 06:55:22 51°14.677 2°54.227 295.4 12.8 293 11.3
2005-10-24 06:55:27 51°14.684 2°54.201 295.3 12.8 293 11.2
2005-10-24 06:55:32 51°14.691 2°54.175 295.8 12.8 294 11.2
2005-10-24 06:55:37 51°14.698 2°54.149 296.3 12.8 294 11.2
2005-10-24 06:55:42 51°14.706 2°54.123 296.8 12.8 294 11.2
2005-10-24 06:55:47 51°14.713 2°54.098 296.8 12.8 294 11.2
2005-10-24 06:55:52 51°14.72 2°54.072 296.7 12.8 294 11
2005-10-24 06:55:57 51°14.727 2°54.046 296.5 12.7 294 11
2005-10-24 06:56:02 51°14.734 2°54.02 296.2 12.8 294 11
2005-10-24 06:56:07 51°14.742 2°53.994 296.3 12.8 293 11.1
2005-10-24 06:56:11 51°14.747 2°53.974 296.1 12.7 293 11.2
2005-10-24 06:56:17 51°14.755 2°53.942 294.8 12.7 291 11
2005-10-24 06:56:22 51°14.761 2°53.916 294 12.7 291 11
2005-10-24 06:56:27 51°14.767 2°53.889 292.7 12.7 289 11.1
2005-10-24 06:56:32 51°14.772 2°53.863 292 12.7 289 11
2005-10-24 06:56:37 51°14.778 2°53.836 291.7 12.7 289 10.9
2005-10-24 06:56:42 51°14.783 2°53.809 291.6 12.8 288 10.8
2005-10-24 06:56:47 51°14.789 2°53.783 291.6 12.8 289 10.8
2005-10-24 06:56:52 51°14.795 2°53.756 291.4 12.8 288 10.8
2005-10-24 06:56:57 51°14.8 2°53.729 291.6 12.7 289 10.8
2005-10-24 06:57:02 51°14.806 2°53.702 291.8 12.7 288 10.8
2005-10-24 06:57:07 51°14.812 2°53.676 292.1 12.8 289 10.9
2005-10-24 06:57:12 51°14.817 2°53.649 292.4 12.8 289 10.8
2005-10-24 06:57:17 51°14.823 2°53.622 292 12.8 288 10.8
2005-10-24 06:57:22 51°14.828 2°53.595 291.1 12.8 287 10.8
2005-10-24 06:57:27 51°14.833 2°53.568 290.9 12.8 287 11
2005-10-24 06:57:32 51°14.838 2°53.54 290.2 12.8 286 10.8
2005-10-24 06:57:37 51°14.843 2°53.513 289.7 12.9 287 11.1
2005-10-24 06:57:42 51°14.848 2°53.486 289.6 12.9 285 11
2005-10-24 06:57:47 51°14.853 2°53.458 289.5 12.9 286 11.3
2005-10-24 06:57:51 51°14.857 2°53.436 289.5 12.9 286 11.1
2005-10-24 06:57:57 51°14.863 2°53.404 289.6 12.9 286 11.1
2005-10-24 06:58:02 51°14.868 2°53.376 289.5 12.8 286 11.2
2005-10-24 06:58:07 51°14.873 2°53.349 289.5 12.9 286 11.2
2005-10-24 06:58:11 51°14.877 2°53.327 289.3 12.9 286 11.2
2005-10-24 06:58:17 51°14.882 2°53.294 289.5 12.9 286 11.2
2005-10-24 06:58:22 51°14.887 2°53.267 289.5 12.8 286 11.5
2005-10-24 06:58:27 51°14.892 2°53.239 289.1 12.9 284 11.4
2005-10-24 06:58:32 51°14.896 2°53.212 288.7 12.9 285 11.5
2005-10-24 06:58:37 51°14.901 2°53.184 288.7 12.9 285 11.3
2005-10-24 06:58:41 51°14.904 2°53.162 288.5 12.8 285 11.2
2005-10-24 06:58:47 51°14.91 2°53.129 288.4 12.9 284 11.3
2005-10-24 06:58:52 51°14.914 2°53.102 288.6 12.8 284 11.3
2005-10-24 06:58:57 51°14.918 2°53.074 288.3 12.8 285 11.2
2005-10-24 06:59:02 51°14.922 2°53.046 287.4 12.8 282 11.3
2005-10-24 06:59:07 51°14.925 2°53.018 286 12.9 282 11.4
2005-10-24 06:59:12 51°14.928 2°52.991 285 12.8 281 11.3
2005-10-24 06:59:17 51°14.931 2°52.962 284.2 12.8 280 11.4
2005-10-24 06:59:22 51°14.935 2°52.934 284.1 12.9 280 11.3
2005-10-24 06:59:27 51°14.937 2°52.906 283.4 12.9 279 11.4
2005-10-24 06:59:32 51°14.941 2°52.878 283 12.9 279 11.6
2005-10-24 06:59:37 51°14.943 2°52.85 283 12.8 280 11.4
2005-10-24 06:59:42 51°14.947 2°52.822 283.2 12.9 280 11.6
2005-10-24 06:59:47 51°14.95 2°52.794 283.7 12.9 280 11.9
2005-10-24 06:59:52 51°14.953 2°52.766 283.5 12.9 280 11.7
2005-10-24 06:59:57 51°14.956 2°52.738 283.5 12.9 280 11.9
2005-10-24 07:00:02 51°14.958 2°52.71 282.8 12.9 279 11.6
2005-10-24 07:00:07 51°14.961 2°52.681 281.7 12.9 278 11.9
2005-10-24 07:00:12 51°14.963 2°52.653 280.6 12.9 277 11.6
2005-10-24 07:00:17 51°14.964 2°52.625 280.2 12.8 276 11.8
2005-10-24 07:00:22 51°14.965 2°52.596 279.5 12.8 275 11.7
2005-10-24 07:00:27 51°14.966 2°52.568 277 12.7 272 11.5
2005-10-24 07:00:32 51°14.965 2°52.54 273.8 12.7 269 11.3
2005-10-24 07:00:37 51°14.964 2°52.512 271.2 12.7 268 11.3
2005-10-24 07:00:42 51°14.963 2°52.485 269.2 12.6 267 11.3
2005-10-24 07:00:47 51°14.962 2°52.457 268.5 12.7 267 11.3
2005-10-24 07:00:52 51°14.961 2°52.428 269.2 12.7 266 11.4
2005-10-24 07:00:57 51°14.96 2°52.4 269.9 12.7 269 11.3
2005-10-24 07:01:02 51°14.96 2°52.372 271 12.8 268 11.4
2005-10-24 07:01:07 51°14.96 2°52.344 271.9 12.8 270 11.4
2005-10-24 07:01:12 51°14.96 2°52.315 272.5 12.8 271 11.4
2005-10-24 07:01:17 51°14.96 2°52.287 272.9 12.8 269 11.5
2005-10-24 07:01:22 51°14.96 2°52.259 273.1 12.8 271 11.5
2005-10-24 07:01:27 51°14.961 2°52.231 273.4 12.8 271 11.5
2005-10-24 07:01:32 51°14.961 2°52.202 273.6 12.8 270 11.6
2005-10-24 07:01:37 51°14.961 2°52.174 273.6 12.8 270 11.7
2005-10-24 07:01:42 51°14.961 2°52.146 273.4 12.8 270 11.7
2005-10-24 07:01:47 51°14.961 2°52.117 272.9 12.8 271 11.7
2005-10-24 07:01:52 51°14.961 2°52.089 272.9 12.8 270 11.7
2005-10-24 07:01:57 51°14.961 2°52.061 272.9 12.8 271 11.7
2005-10-24 07:02:02 51°14.962 2°52.032 272.9 12.8 270 11.8
2005-10-24 07:02:07 51°14.961 2°52.005 273.1 12.8 270 11.9
2005-10-24 07:02:12 51°14.962 2°51.977 273.2 12.8 271 11.8
2005-10-24 07:02:17 51°14.962 2°51.948 273.2 12.7 270 11.9
2005-10-24 07:02:22 51°14.962 2°51.92 273.2 12.8 271 12
2005-10-24 07:02:27 51°14.962 2°51.892 273.6 12.7 271 11.8
2005-10-24 07:02:32 51°14.963 2°51.864 273.5 12.8 270 12
2005-10-24 07:02:37 51°14.963 2°51.836 273.1 12.8 271 12.1
2005-10-24 07:02:42 51°14.963 2°51.807 273.4 12.8 271 12.1
2005-10-24 07:02:47 51°14.963 2°51.779 273.5 12.7 271 12.1
2005-10-24 07:02:52 51°14.964 2°51.751 273.6 12.7 271 12.1
2005-10-24 07:02:57 51°14.964 2°51.723 273.4 12.7 271 12.2
2005-10-24 07:03:02 51°14.964 2°51.695 273.6 12.7 271 12.2
2005-10-24 07:03:07 51°14.964 2°51.666 273.7 12.7 271 12.3
2005-10-24 07:03:11 51°14.964 2°51.644 273.8 12.7 271 12.4
2005-10-24 07:03:17 51°14.965 2°51.61 273.6 12.7 271 12.3
2005-10-24 07:03:22 51°14.965 2°51.582 273.8 12.7 271 12.4
2005-10-24 07:03:27 51°14.966 2°51.554 273.9 12.7 271 12.5
2005-10-24 07:03:32 51°14.966 2°51.526 274 12.7 271 12.5
2005-10-24 07:03:37 51°14.966 2°51.498 274.1 12.7 272 12.5
2005-10-24 07:03:42 51°14.967 2°51.47 274.3 12.7 271 12.5
2005-10-24 07:03:47 51°14.967 2°51.442 273.9 12.7 270 12.5
2005-10-24 07:03:52 51°14.967 2°51.414 273.4 12.7 270 12.6
2005-10-24 07:03:57 51°14.966 2°51.386 271.4 12.6 268 12.6
2005-10-24 07:04:02 51°14.964 2°51.358 269.7 12.6 266 12.7
2005-10-24 07:04:07 51°14.962 2°51.33 268 12.6 264 12.7
2005-10-24 07:04:12 51°14.96 2°51.303 267 12.6 264 12.8
2005-10-24 07:04:17 51°14.958 2°51.275 266.3 12.7 263 12.7
2005-10-24 07:04:22 51°14.956 2°51.247 265.7 12.6 263 12.8
2005-10-24 07:04:27 51°14.953 2°51.22 265 12.6 262 12.7
2005-10-24 07:04:32 51°14.951 2°51.192 264 12.6 261 12.7
2005-10-24 07:04:37 51°14.947 2°51.165 263.3 12.7 261 12.8
2005-10-24 07:04:42 51°14.944 2°51.138 263 12.6 260 12.8
2005-10-24 07:04:47 51°14.941 2°51.11 262.5 12.6 260 12.8
2005-10-24 07:04:52 51°14.938 2°51.083 262 12.6 260 12.8
2005-10-24 07:04:57 51°14.935 2°51.055 262 12.6 261 12.8
2005-10-24 07:05:02 51°14.931 2°51.028 261.6 12.6 258 12.8
2005-10-24 07:05:07 51°14.929 2°51.001 261.7 12.6 261 12.8
2005-10-24 07:05:12 51°14.925 2°50.973 261.9 12.6 257 12.9
2005-10-24 07:05:17 51°14.921 2°50.946 261.5 12.6 260 12.8
2005-10-24 07:05:22 51°14.918 2°50.919 260.9 12.6 258 12.9
2005-10-24 07:05:27 51°14.914 2°50.892 260 12.6 258 12.9
2005-10-24 07:05:32 51°14.909 2°50.865 259 12.5 256 12.9
2005-10-24 07:05:37 51°14.905 2°50.838 258.3 12.5 255 12.9
2005-10-24 07:05:42 51°14.901 2°50.811 257.7 12.5 255 13
2005-10-24 07:05:47 51°14.896 2°50.785 257.6 12.6 256 12.9
2005-10-24 07:05:52 51°14.892 2°50.758 257.6 12.5 255 13
2005-10-24 07:05:57 51°14.887 2°50.731 257.7 12.5 256 13
2005-10-24 07:06:02 51°14.883 2°50.704 257.1 12.5 254 13
2005-10-24 07:06:07 51°14.878 2°50.678 257.3 12.5 254 12.9
2005-10-24 07:06:12 51°14.874 2°50.651 256.9 12.6 254 13
2005-10-24 07:06:17 51°14.868 2°50.625 257.4 12.5 254 13.1
2005-10-24 07:06:22 51°14.864 2°50.597 256.5 12.6 254 13
2005-10-24 07:06:27 51°14.859 2°50.571 256.6 12.6 254 13
2005-10-24 07:06:32 51°14.854 2°50.544 256.5 12.5 253 13.2
2005-10-24 07:06:37 51°14.849 2°50.518 256.1 12.6 254 13.1
2005-10-24 07:06:42 51°14.844 2°50.491 256.1 12.6 253 13
2005-10-24 07:06:47 51°14.839 2°50.464 256 12.6 254 13.1
2005-10-24 07:06:51 51°14.836 2°50.443 256.5 12.5 254 13.1
2005-10-24 07:06:57 51°14.83 2°50.41 256.4 12.6 254 13.1
2005-10-24 07:07:02 51°14.826 2°50.384 257.3 12.6 255 13.1
2005-10-24 07:07:07 51°14.821 2°50.357 258 12.6 256 13.1
2005-10-24 07:07:11 51°14.818 2°50.335 257.9 12.7 256 13
2005-10-24 07:07:17 51°14.813 2°50.302 258.5 12.6 257 13.1
2005-10-24 07:07:22 51°14.809 2°50.275 258.7 12.6 257 13.1
2005-10-24 07:07:27 51°14.805 2°50.248 259.2 12.5 256 13.1
2005-10-24 07:07:31 51°14.802 2°50.226 258.8 12.6 257 13.2
2005-10-24 07:07:37 51°14.796 2°50.194 258.4 12.6 256 13.2
2005-10-24 07:07:42 51°14.792 2°50.167 258.7 12.5 257 13.1
2005-10-24 07:07:47 51°14.788 2°50.14 258.3 12.6 256 13.1
2005-10-24 07:07:52 51°14.784 2°50.113 259.1 12.6 257 13.2
2005-10-24 07:07:57 51°14.78 2°50.086 258.7 12.5 256 13.1
2005-10-24 07:08:02 51°14.776 2°50.059 258.5 12.6 257 13.2
2005-10-24 07:08:07 51°14.772 2°50.032 258.8 12.6 256 13.2
2005-10-24 07:08:12 51°14.768 2°50.005 258.8 12.6 257 13.2
2005-10-24 07:08:17 51°14.763 2°49.978 258.6 12.6 256 13.2
2005-10-24 07:08:22 51°14.759 2°49.951 258.6 12.6 256 13.2
2005-10-24 07:08:27 51°14.755 2°49.924 258.6 12.6 256 13.2
2005-10-24 07:08:32 51°14.751 2°49.897 258.6 12.5 257 13.1
2005-10-24 07:08:37 51°14.747 2°49.87 258.6 12.6 256 13.1
2005-10-24 07:08:42 51°14.743 2°49.842 258.5 12.7 257 13.2
2005-10-24 07:08:47 51°14.738 2°49.816 258.6 12.5 255 13.3
2005-10-24 07:08:51 51°14.735 2°49.794 258.2 12.6 257 13.2
2005-10-24 07:08:57 51°14.73 2°49.762 258.5 12.6 256 13.2
2005-10-24 07:09:02 51°14.726 2°49.735 258.7 12.5 256 13.2
2005-10-24 07:09:07 51°14.721 2°49.708 258.3 12.6 255 13.3
2005-10-24 07:09:11 51°14.718 2°49.686 257.7 12.5 256 13.3
2005-10-24 07:09:17 51°14.712 2°49.654 256.6 12.5 254 13.3
2005-10-24 07:09:22 51°14.707 2°49.628 256.5 12.6 254 13.3
2005-10-24 07:09:27 51°14.702 2°49.602 256.1 12.5 253 13.2
2005-10-24 07:09:32 51°14.697 2°49.575 255.2 12.6 253 13.3
2005-10-24 07:09:37 51°14.691 2°49.549 254.4 12.6 252 13.3
2005-10-24 07:09:42 51°14.685 2°49.523 253.8 12.4 252 13.1
2005-10-24 07:09:47 51°14.68 2°49.496 252.9 12.6 251 13.2
2005-10-24 07:09:52 51°14.674 2°49.471 253.6 12.6 251 13.2
2005-10-24 07:09:57 51°14.669 2°49.445 253.2 12.4 249 13.2
2005-10-24 07:10:02 51°14.662 2°49.419 252.7 12.4 252 13.2
2005-10-24 07:10:07 51°14.658 2°49.392 253 12.7 253 13.3
2005-10-24 07:10:12 51°14.651 2°49.367 253.5 12.3 249 13.1
2005-10-24 07:10:17 51°14.646 2°49.34 252.1 12.5 248 13.1
2005-10-24 07:10:22 51°14.64 2°49.314 253 12.6 251 13.2
2005-10-24 07:10:27 51°14.634 2°49.288 252.9 12.4 250 13.2
2005-10-24 07:10:32 51°14.628 2°49.262 252.7 12.5 251 13.1
2005-10-24 07:10:37 51°14.623 2°49.236 253.2 12.6 250 13.2
2005-10-24 07:10:42 51°14.617 2°49.21 253.1 12.5 252 13.2
2005-10-24 07:10:47 51°14.611 2°49.184 252.5 12.6 251 13.1
2005-10-24 07:10:52 51°14.605 2°49.158 253.3 12.5 251 13.2
2005-10-24 07:10:57 51°14.6 2°49.132 252.9 12.4 251 13.1
2005-10-24 07:11:02 51°14.594 2°49.105 253 12.5 251 13.1
2005-10-24 07:11:07 51°14.589 2°49.079 253.2 12.5 251 13.2
2005-10-24 07:11:12 51°14.583 2°49.053 253.3 12.4 252 13.1
2005-10-24 07:11:17 51°14.577 2°49.027 252.5 12.5 251 13.1
2005-10-24 07:11:22 51°14.572 2°49.001 253.4 12.4 252 13.1
2005-10-24 07:11:27 51°14.566 2°48.975 252.9 12.5 250 13
2005-10-24 07:11:31 51°14.562 2°48.954 252.8 12.5 251 13.1
2005-10-24 07:11:37 51°14.555 2°48.924 253.3 12.4 250 13.1
2005-10-24 07:11:42 51°14.548 2°48.897 251.9 12.4 249 13
2005-10-24 07:11:47 51°14.543 2°48.871 252.8 12.6 252 13.1
2005-10-24 07:11:51 51°14.538 2°48.851 252.5 12.4 249 13
2005-10-24 07:11:57 51°14.531 2°48.82 251.8 12.4 250 13
2005-10-24 07:12:02 51°14.525 2°48.794 251.8 12.6 250 12.9
2005-10-24 07:12:07 51°14.519 2°48.768 252.4 12.4 250 13
2005-10-24 07:12:12 51°14.513 2°48.742 251.5 12.5 249 12.9
2005-10-24 07:12:17 51°14.507 2°48.716 251.8 12.5 250 12.9
2005-10-24 07:12:22 51°14.501 2°48.69 251.8 12.5 248 12.9
2005-10-24 07:12:27 51°14.495 2°48.664 251.7 12.6 251 12.9
2005-10-24 07:12:32 51°14.489 2°48.639 252.1 12.4 250 12.9
2005-10-24 07:12:37 51°14.483 2°48.612 251.3 12.5 250 12.9
2005-10-24 07:12:42 51°14.477 2°48.587 251.8 12.5 250 12.9
2005-10-24 07:12:47 51°14.471 2°48.561 251.8 12.4 249 12.9
2005-10-24 07:12:52 51°14.465 2°48.535 251.6 12.5 250 12.9
2005-10-24 07:12:57 51°14.459 2°48.509 252.2 12.5 250 12.9
2005-10-24 07:13:02 51°14.453 2°48.483 251.7 12.5 249 12.9
2005-10-24 07:13:07 51°14.447 2°48.457 251.8 12.4 250 12.8
2005-10-24 07:13:12 51°14.441 2°48.431 251.6 12.5 249 12.8
2005-10-24 07:13:17 51°14.435 2°48.405 252 12.6 250 12.8
2005-10-24 07:13:22 51°14.43 2°48.379 252.4 12.5 250 12.7
2005-10-24 07:13:27 51°14.424 2°48.353 252.3 12.4 250 12.7
2005-10-24 07:13:32 51°14.418 2°48.327 251.8 12.5 250 12.6
2005-10-24 07:13:37 51°14.412 2°48.302 252.2 12.5 250 12.6
2005-10-24 07:13:42 51°14.406 2°48.275 252.1 12.5 250 12.6
2005-10-24 07:13:47 51°14.4 2°48.25 252.1 12.4 250 12.7
2005-10-24 07:13:52 51°14.394 2°48.224 251.6 12.5 249 12.5
2005-10-24 07:13:57 51°14.388 2°48.198 251.6 12.6 250 12.7
2005-10-24 07:14:02 51°14.382 2°48.172 251.7 12.5 250 12.6
2005-10-24 07:14:07 51°14.376 2°48.146 251.1 12.5 250 12.7
2005-10-24 07:14:11 51°14.371 2°48.126 251.1 12.6 249 12.6
2005-10-24 07:14:17 51°14.364 2°48.095 251.8 12.5 251 12.7
2005-10-24 07:14:22 51°14.358 2°48.069 251.8 12.5 249 12.5
2005-10-24 07:14:27 51°14.352 2°48.042 251.6 12.6 250 12.5
2005-10-24 07:14:31 51°14.347 2°48.022 252.2 12.5 250 12.7
2005-10-24 07:14:37 51°14.34 2°47.991 251.8 12.5 250 12.4
2005-10-24 07:14:42 51°14.334 2°47.964 251.7 12.6 249 12.4
2005-10-24 07:14:47 51°14.328 2°47.938 252.5 12.4 251 12.4
2005-10-24 07:14:52 51°14.322 2°47.912 252.2 12.5 250 12.3
2005-10-24 07:14:57 51°14.317 2°47.886 252.2 12.6 251 12.2
2005-10-24 07:15:02 51°14.311 2°47.86 252.6 12.5 250 12.2
2005-10-24 07:15:07 51°14.305 2°47.834 252.3 12.4 251 12.3
2005-10-24 07:15:11 51°14.301 2°47.813 251.7 12.6 250 12.2
2005-10-24 07:15:17 51°14.294 2°47.783 252.2 12.4 250 12.2
2005-10-24 07:15:22 51°14.288 2°47.757 251.8 12.4 250 11.9
2005-10-24 07:15:27 51°14.282 2°47.73 251.7 12.5 251 12.1
2005-10-24 07:15:32 51°14.276 2°47.704 252.5 12.6 251 11.9
2005-10-24 07:15:37 51°14.271 2°47.678 252.5 12.5 251 12
2005-10-24 07:15:42 51°14.265 2°47.652 252.5 12.4 250 11.9
2005-10-24 07:15:47 51°14.259 2°47.626 251.8 12.6 251 11.9
2005-10-24 07:15:52 51°14.253 2°47.6 252.3 12.6 251 11.6
2005-10-24 07:15:57 51°14.248 2°47.573 252.6 12.5 251 11.8
2005-10-24 07:16:02 51°14.244 2°47.547 254.7 12.5 254 11.6
2005-10-24 07:16:07 51°14.239 2°47.52 256.6 12.5 255 11.7
2005-10-24 07:16:11 51°14.237 2°47.498 258.3 12.7 257 11.6
2005-10-24 07:16:17 51°14.232 2°47.465 259.6 12.7 258 11.5
2005-10-24 07:16:22 51°14.229 2°47.437 260.5 12.6 260 11.5
2005-10-24 07:16:27 51°14.226 2°47.41 260.7 12.5 259 11.5
2005-10-24 07:16:32 51°14.224 2°47.382 262.1 12.6 262 11.3
2005-10-24 07:16:37 51°14.223 2°47.354 265 12.7 264 11.1
2005-10-24 07:16:42 51°14.222 2°47.326 267.3 12.7 266 11.1
2005-10-24 07:16:47 51°14.221 2°47.299 268.7 12.6 268 11
2005-10-24 07:16:52 51°14.221 2°47.271 269.4 12.6 267 10.8
2005-10-24 07:16:57 51°14.22 2°47.243 270 12.6 268 10.8
2005-10-24 07:17:02 51°14.22 2°47.215 270 12.7 268 10.5
2005-10-24 07:17:07 51°14.219 2°47.187 270.3 12.7 269 10.4
2005-10-24 07:17:12 51°14.219 2°47.159 270.7 12.7 269 10.4
2005-10-24 07:17:17 51°14.219 2°47.131 270.7 12.6 268 10.4
2005-10-24 07:17:22 51°14.218 2°47.103 270.6 12.6 268 10
2005-10-24 07:17:27 51°14.218 2°47.075 270 12.7 268 10.2
2005-10-24 07:17:32 51°14.217 2°47.047 270.3 12.7 269 10.2
2005-10-24 07:17:37 51°14.217 2°47.019 270.6 12.6 269 10.1
2005-10-24 07:17:42 51°14.217 2°46.991 270.5 12.6 269 10.1
2005-10-24 07:17:47 51°14.216 2°46.963 270.7 12.6 269 10.1
2005-10-24 07:17:52 51°14.216 2°46.935 270.5 12.7 268 10.1
2005-10-24 07:17:57 51°14.215 2°46.907 270.2 12.7 269 9.9
2005-10-24 07:18:02 51°14.216 2°46.879 270 12.6 268 9.8
2005-10-24 07:18:07 51°14.214 2°46.851 270 12.7 267 10.3
2005-10-24 07:18:12 51°14.214 2°46.823 269.7 12.7 269 10.2
2005-10-24 07:18:17 51°14.213 2°46.795 269.5 12.6 268 10.3
2005-10-24 07:18:22 51°14.212 2°46.767 269.4 12.7 268 10.1
2005-10-24 07:18:27 51°14.212 2°46.739 269.5 12.8 269 10.4
2005-10-24 07:18:32 51°14.211 2°46.711 269.6 12.7 268 10.3
2005-10-24 07:18:37 51°14.211 2°46.683 269.8 12.7 268 10.6
2005-10-24 07:18:42 51°14.211 2°46.655 270 12.7 268 10.6
2005-10-24 07:18:47 51°14.21 2°46.627 270 12.7 268 10.9
2005-10-24 07:18:52 51°14.21 2°46.599 270 12.7 268 11
2005-10-24 07:18:57 51°14.209 2°46.57 269.7 12.7 268 11
2005-10-24 07:19:02 51°14.208 2°46.542 269.7 12.8 268 11.1
2005-10-24 07:19:07 51°14.208 2°46.515 269.9 12.7 269 11
2005-10-24 07:19:12 51°14.208 2°46.486 269.8 12.7 268 11.3
2005-10-24 07:19:17 51°14.208 2°46.458 270 12.7 270 11.3
2005-10-24 07:19:22 51°14.207 2°46.43 270.2 12.7 270 11.5
2005-10-24 07:19:27 51°14.207 2°46.402 270.1 12.7 270 11.7
2005-10-24 07:19:32 51°14.206 2°46.374 270.4 12.6 269 11.6
2005-10-24 07:19:37 51°14.206 2°46.346 270 12.7 269 11.8
2005-10-24 07:19:42 51°14.205 2°46.318 269.8 12.6 269 11.8
2005-10-24 07:19:47 51°14.205 2°46.29 269.5 12.7 268 11.9
2005-10-24 07:19:52 51°14.204 2°46.262 269.7 12.7 268 12.1
2005-10-24 07:19:57 51°14.204 2°46.234 269.9 12.6 269 12.2
2005-10-24 07:20:02 51°14.204 2°46.206 269.8 12.7 269 12.3
2005-10-24 07:20:07 51°14.204 2°46.178 270 12.7 270 12.4
2005-10-24 07:20:12 51°14.203 2°46.15 269.9 12.7 268 12.5
2005-10-24 07:20:17 51°14.202 2°46.122 269.7 12.7 269 12.6
2005-10-24 07:20:22 51°14.202 2°46.094 269.4 12.7 268 12.7
2005-10-24 07:20:27 51°14.201 2°46.066 269.4 12.7 269 12.9
2005-10-24 07:20:32 51°14.201 2°46.038 268.9 12.7 267 12.9
2005-10-24 07:20:37 51°14.2 2°46.01 269.2 12.7 269 13
2005-10-24 07:20:42 51°14.2 2°45.982 269.6 12.7 269 13
2005-10-24 07:20:47 51°14.199 2°45.954 270 12.6 268 13.2
2005-10-24 07:20:52 51°14.199 2°45.926 269.9 12.7 269 13.2
2005-10-24 07:20:57 51°14.199 2°45.899 270.1 12.6 270 13.3
2005-10-24 07:21:02 51°14.199 2°45.871 269.8 12.6 269 13.3
2005-10-24 07:21:07 51°14.198 2°45.843 269.5 12.7 269 13.3
2005-10-24 07:21:11 51°14.198 2°45.821 270 12.6 270 13.4
2005-10-24 07:21:17 51°14.197 2°45.787 269.4 12.6 267 13.4
2005-10-24 07:21:22 51°14.197 2°45.759 269.2 12.7 269 13.5
2005-10-24 07:21:27 51°14.196 2°45.731 269.4 12.7 268 13.4
2005-10-24 07:21:31 51°14.196 2°45.709 269.3 12.6 269 13.5
2005-10-24 07:21:37 51°14.196 2°45.676 269.4 12.5 269 13.4
2005-10-24 07:21:42 51°14.195 2°45.648 269.2 12.6 268 13.4
2005-10-24 07:21:47 51°14.195 2°45.62 269.7 12.6 268 13.4
2005-10-24 07:21:52 51°14.194 2°45.592 269.5 12.5 269 13.4
2005-10-24 07:21:57 51°14.194 2°45.564 269.2 12.6 268 13.3
2005-10-24 07:22:02 51°14.193 2°45.536 269.3 12.7 269 13.3
2005-10-24 07:22:07 51°14.193 2°45.508 269.2 12.7 268 13.2
2005-10-24 07:22:12 51°14.193 2°45.48 269 12.6 269 13.2
2005-10-24 07:22:17 51°14.192 2°45.453 269 12.6 268 13.1
2005-10-24 07:22:22 51°14.191 2°45.425 269.1 12.6 268 13
2005-10-24 07:22:27 51°14.191 2°45.397 269.5 12.6 268 12.9
2005-10-24 07:22:32 51°14.19 2°45.369 269.1 12.6 268 12.9
2005-10-24 07:22:37 51°14.19 2°45.341 268.7 12.7 268 12.5
2005-10-24 07:22:42 51°14.189 2°45.313 269.2 12.7 269 12.3
2005-10-24 07:22:47 51°14.189 2°45.285 269.5 12.6 268 12.3
2005-10-24 07:22:52 51°14.189 2°45.257 269.2 12.6 269 12.1
2005-10-24 07:22:57 51°14.188 2°45.229 269.9 12.6 269 11.7
2005-10-24 07:23:02 51°14.188 2°45.201 269.2 12.7 269 11.3
2005-10-24 07:23:07 51°14.187 2°45.173 269.7 12.7 269 11.1
2005-10-24 07:23:11 51°14.187 2°45.151 269.2 12.6 268 10.9
2005-10-24 07:23:17 51°14.186 2°45.118 268.8 12.6 268 10.6
2005-10-24 07:23:22 51°14.185 2°45.09 268.9 12.6 268 10.3
2005-10-24 07:23:27 51°14.185 2°45.062 268.3 12.6 269 10.2
2005-10-24 07:23:32 51°14.184 2°45.034 268.7 12.6 267 9.9
2005-10-24 07:23:37 51°14.184 2°45.006 268.8 12.5 269 9.5
2005-10-24 07:23:42 51°14.183 2°44.979 269 12.5 268 9.4
2005-10-24 07:23:47 51°14.182 2°44.951 268.5 12.5 267 9.2
2005-10-24 07:23:52 51°14.182 2°44.923 268.9 12.6 269 9.1
2005-10-24 07:23:57 51°14.181 2°44.895 269.2 12.5 268 8.8
2005-10-24 07:24:02 51°14.181 2°44.868 269.4 12.5 270 8.7
2005-10-24 07:24:07 51°14.181 2°44.84 269.2 12.5 268 8.6
2005-10-24 07:24:12 51°14.18 2°44.813 269.1 12.5 269 8.4
2005-10-24 07:24:17 51°14.18 2°44.785 268.5 12.5 268 8.4
2005-10-24 07:24:22 51°14.178 2°44.757 268.5 12.5 268 8.3
2005-10-24 07:24:27 51°14.178 2°44.73 268.6 12.6 270 8.6
2005-10-24 07:24:32 51°14.178 2°44.702 269.6 12.5 269 8.7
2005-10-24 07:24:37 51°14.178 2°44.674 270.4 12.7 271 8.6
2005-10-24 07:24:42 51°14.179 2°44.646 271.2 12.7 271 8.8
2005-10-24 07:24:47 51°14.18 2°44.618 271.9 12.7 272 9
2005-10-24 07:24:52 51°14.181 2°44.59 272.7 12.8 272 9.1
2005-10-24 07:24:57 51°14.182 2°44.561 273.6 12.8 273 9.4
2005-10-24 07:25:02 51°14.184 2°44.533 275.8 12.9 275 9.6
2005-10-24 07:25:07 51°14.187 2°44.504 277.2 13 277 10
2005-10-24 07:25:12 51°14.189 2°44.476 278.7 13 278 10.2
2005-10-24 07:25:17 51°14.193 2°44.447 280.1 13 279 10.5
2005-10-24 07:25:22 51°14.195 2°44.419 280.4 13 280 10.9
2005-10-24 07:25:27 51°14.199 2°44.39 280.7 13.1 280 11
2005-10-24 07:25:32 51°14.202 2°44.362 280.8 13 280 11.3
2005-10-24 07:25:37 51°14.205 2°44.333 280.8 13.1 280 11.6
2005-10-24 07:25:42 51°14.208 2°44.305 280.7 13 279 11.7
2005-10-24 07:25:47 51°14.211 2°44.277 280.7 13 280 12
2005-10-24 07:25:52 51°14.214 2°44.248 280.6 12.9 279 12.2
2005-10-24 07:25:57 51°14.217 2°44.22 280.5 13 279 12.4
2005-10-24 07:26:02 51°14.219 2°44.192 280.1 12.9 279 12.5
2005-10-24 07:26:07 51°14.222 2°44.164 279.1 12.9 277 12.8
2005-10-24 07:26:12 51°14.224 2°44.136 278.7 12.9 278 13
2005-10-24 07:26:17 51°14.227 2°44.107 278.6 12.9 278 13.1
2005-10-24 07:26:22 51°14.229 2°44.079 278.7 12.9 278 13.3
2005-10-24 07:26:27 51°14.231 2°44.051 278.2 12.8 278 13.5
2005-10-24 07:26:32 51°14.234 2°44.023 277.7 12.8 277 13.8
2005-10-24 07:26:37 51°14.236 2°43.995 277.5 12.8 277 13.9
2005-10-24 07:26:42 51°14.238 2°43.967 277.7 12.8 277 14
2005-10-24 07:26:47 51°14.24 2°43.939 277.4 12.8 277 14.3
2005-10-24 07:26:52 51°14.243 2°43.911 277.4 12.8 277 14.5
2005-10-24 07:26:57 51°14.244 2°43.883 276.9 12.8 276 14.6
2005-10-24 07:27:02 51°14.247 2°43.855 277.2 12.8 278 14.8
2005-10-24 07:27:07 51°14.249 2°43.827 277.6 12.8 276 14.9
2005-10-24 07:27:11 51°14.251 2°43.804 277.6 12.8 278 15
2005-10-24 07:27:17 51°14.253 2°43.771 277.8 12.8 277 15.1
2005-10-24 07:27:22 51°14.256 2°43.743 277.7 12.8 278 15.3
2005-10-24 07:27:27 51°14.258 2°43.715 277.7 12.8 276 15.4
2005-10-24 07:27:32 51°14.26 2°43.687 277.4 12.8 278 15.5
2005-10-24 07:27:37 51°14.263 2°43.659 277.4 12.8 278 15.6
2005-10-24 07:27:42 51°14.265 2°43.631 277.4 12.8 277 15.6
2005-10-24 07:27:47 51°14.267 2°43.603 277.1 12.8 277 15.6
2005-10-24 07:27:52 51°14.269 2°43.575 276.9 12.8 277 15.8
2005-10-24 07:27:57 51°14.271 2°43.547 277.2 12.8 277 15.8
2005-10-24 07:28:02 51°14.273 2°43.519 277.2 12.8 278 16
2005-10-24 07:28:07 51°14.276 2°43.491 277.8 12.8 278 16.2
2005-10-24 07:28:12 51°14.278 2°43.463 277.9 12.7 278 16.3
2005-10-24 07:28:17 51°14.28 2°43.435 277.9 12.8 278 16.5
2005-10-24 07:28:22 51°14.283 2°43.407 277.7 12.8 277 16.6
2005-10-24 07:28:27 51°14.285 2°43.379 277.3 12.8 277 16.7
2005-10-24 07:28:32 51°14.287 2°43.351 277.1 12.8 277 16.7
2005-10-24 07:28:37 51°14.289 2°43.323 277.4 12.8 278 16.8
2005-10-24 07:28:42 51°14.292 2°43.295 277.7 12.8 277 16.8
2005-10-24 07:28:47 51°14.294 2°43.267 277.6 12.8 278 17
2005-10-24 07:28:52 51°14.296 2°43.239 277.2 12.7 277 17
2005-10-24 07:28:57 51°14.298 2°43.211 277.4 12.8 278 17
2005-10-24 07:29:02 51°14.3 2°43.183 277.2 12.8 277 17
2005-10-24 07:29:07 51°14.303 2°43.155 277.3 12.8 277 17
2005-10-24 07:29:12 51°14.305 2°43.127 277.7 12.8 277 17
2005-10-24 07:29:17 51°14.307 2°43.099 277.7 12.8 278 17.1
2005-10-24 07:29:22 51°14.31 2°43.071 277.4 12.7 277 17.1
2005-10-24 07:29:27 51°14.312 2°43.043 277.8 12.8 279 17.2
2005-10-24 07:29:32 51°14.314 2°43.015 277.6 12.8 277 17.1
2005-10-24 07:29:37 51°14.316 2°42.987 277.5 12.8 277 17.3
2005-10-24 07:29:42 51°14.318 2°42.959 277 12.8 276 17.3
2005-10-24 07:29:47 51°14.321 2°42.931 276.8 12.8 278 17.2
2005-10-24 07:29:51 51°14.322 2°42.909 277.2 12.8 276 17.4
2005-10-24 07:29:57 51°14.325 2°42.875 277.2 12.8 278 17.5
2005-10-24 07:30:02 51°14.327 2°42.847 277.4 12.8 277 17.5
2005-10-24 07:30:07 51°14.33 2°42.819 277.5 12.7 278 17.6
2005-10-24 07:30:12 51°14.332 2°42.791 277.5 12.7 278 17.6
2005-10-24 07:30:17 51°14.335 2°42.763 277.7 12.8 279 17.7
2005-10-24 07:30:22 51°14.337 2°42.735 278.1 12.7 277 17.8
2005-10-24 07:30:27 51°14.339 2°42.707 277.6 12.8 277 17.7
2005-10-24 07:30:32 51°14.341 2°42.679 277.7 12.7 278 17.8
2005-10-24 07:30:37 51°14.344 2°42.651 277.2 12.7 277 17.8
2005-10-24 07:30:42 51°14.346 2°42.623 277.5 12.8 277 17.8
2005-10-24 07:30:47 51°14.348 2°42.595 277.4 12.7 277 17.9
2005-10-24 07:30:51 51°14.35 2°42.573 276.7 12.7 277 17.8
2005-10-24 07:30:57 51°14.352 2°42.54 277.2 12.7 277 17.9
2005-10-24 07:31:02 51°14.355 2°42.512 277.1 12.7 277 17.9
2005-10-24 07:31:07 51°14.357 2°42.484 276.5 12.7 277 17.8
2005-10-24 07:31:12 51°14.359 2°42.456 277.1 12.7 277 17.9
2005-10-24 07:31:17 51°14.361 2°42.428 276.9 12.6 277 17.8
2005-10-24 07:31:22 51°14.363 2°42.4 276.7 12.7 277 17.7
2005-10-24 07:31:27 51°14.365 2°42.372 277.1 12.7 277 17.8
2005-10-24 07:31:32 51°14.367 2°42.344 276.8 12.7 277 17.9
2005-10-24 07:31:37 51°14.37 2°42.316 277.2 12.8 277 17.9
2005-10-24 07:31:42 51°14.372 2°42.288 277.5 12.7 278 18
2005-10-24 07:31:47 51°14.374 2°42.261 277.2 12.7 277 17.9
2005-10-24 07:31:51 51°14.376 2°42.239 278 12.7 278 18
2005-10-24 07:31:57 51°14.379 2°42.205 277.7 12.6 277 18.1
2005-10-24 07:32:02 51°14.381 2°42.177 277.5 12.7 278 18.1
2005-10-24 07:32:07 51°14.383 2°42.15 276.9 12.7 276 18
2005-10-24 07:32:12 51°14.385 2°42.122 276.8 12.7 277 17.8
2005-10-24 07:32:17 51°14.388 2°42.094 276.9 12.6 277 17.7
2005-10-24 07:32:22 51°14.39 2°42.066 277.5 12.7 278 17.7
2005-10-24 07:32:27 51°14.392 2°42.039 277.4 12.7 277 17.6
2005-10-24 07:32:32 51°14.394 2°42.011 276.8 12.7 277 17.3
2005-10-24 07:32:37 51°14.396 2°41.983 277.2 12.7 277 17.2
2005-10-24 07:32:42 51°14.399 2°41.955 277.2 12.7 278 17.2
2005-10-24 07:32:47 51°14.4 2°41.927 277.2 12.6 277 16.8
2005-10-24 07:32:52 51°14.403 2°41.9 277 12.6 277 16.9
2005-10-24 07:32:57 51°14.405 2°41.872 277.2 12.6 278 16.5
2005-10-24 07:33:02 51°14.407 2°41.844 277 12.6 276 16.3
2005-10-24 07:33:07 51°14.409 2°41.817 277.3 12.6 277 16.2
2005-10-24 07:33:12 51°14.412 2°41.789 277.2 12.6 276 16
2005-10-24 07:33:17 51°14.413 2°41.761 276.8 12.6 277 15.8
2005-10-24 07:33:22 51°14.416 2°41.733 276.5 12.7 276 15.6
2005-10-24 07:33:27 51°14.418 2°41.705 277.2 12.7 276 15.5
2005-10-24 07:33:32 51°14.421 2°41.678 277.4 12.8 278 15.2
2005-10-24 07:33:37 51°14.423 2°41.65 278.1 12.6 277 15.2
2005-10-24 07:33:42 51°14.425 2°41.622 277.6 12.6 278 14.9
2005-10-24 07:33:47 51°14.427 2°41.594 277.9 12.7 277 14.7
2005-10-24 07:33:52 51°14.43 2°41.567 277.8 12.7 278 14.8
2005-10-24 07:33:57 51°14.432 2°41.539 277.1 12.7 277 14.7
2005-10-24 07:34:02 51°14.434 2°41.511 277.6 12.7 279 14.7
2005-10-24 07:34:07 51°14.437 2°41.483 277.8 12.7 278 14.7
2005-10-24 07:34:11 51°14.438 2°41.461 277.9 12.7 278 14.5
2005-10-24 07:34:17 51°14.442 2°41.428 277.9 12.7 278 14.2
2005-10-24 07:34:22 51°14.444 2°41.4 277.9 12.7 277 13.7
2005-10-24 07:34:27 51°14.446 2°41.372 277.7 12.7 278 12.8
2005-10-24 07:34:32 51°14.449 2°41.345 277.8 12.7 278 13.4
2005-10-24 07:34:37 51°14.451 2°41.317 277.9 12.6 277 13.8
2005-10-24 07:34:42 51°14.454 2°41.289 277.6 12.7 277 14.2
2005-10-24 07:34:47 51°14.456 2°41.261 277.4 12.8 277 14.4
2005-10-24 07:34:52 51°14.458 2°41.233 277.3 12.7 278 14.6
2005-10-24 07:34:57 51°14.461 2°41.205 277.2 12.8 277 14.6
2005-10-24 07:35:02 51°14.463 2°41.177 277.4 12.8 278 14.6
2005-10-24 07:35:07 51°14.466 2°41.149 277.2 12.8 276 14.7
2005-10-24 07:35:12 51°14.467 2°41.121 276.7 12.9 277 14.6
2005-10-24 07:35:17 51°14.469 2°41.093 277.2 12.8 277 14.7
2005-10-24 07:35:22 51°14.471 2°41.065 276.5 12.7 276 14.7
2005-10-24 07:35:27 51°14.473 2°41.037 276.7 12.9 276 14.4
2005-10-24 07:35:32 51°14.476 2°41.009 277 12.8 277 14.4
2005-10-24 07:35:37 51°14.478 2°40.981 277.2 12.7 276 14.5
2005-10-24 07:35:42 51°14.48 2°40.953 276.9 12.8 278 14.3
2005-10-24 07:35:47 51°14.482 2°40.925 277.5 12.8 277 14.5
2005-10-24 07:35:52 51°14.482 2°40.896 277.1 12.8 277 14.4
2005-10-24 07:35:57 51°14.484 2°40.868 277.2 12.7 277 14.3
2005-10-24 07:36:02 51°14.485 2°40.84 277.2 12.8 277 14.2
2005-10-24 07:36:07 51°14.488 2°40.812 277.3 12.9 278 14.1
2005-10-24 07:36:12 51°14.49 2°40.784 278 12.8 279 14
2005-10-24 07:36:17 51°14.493 2°40.757 278.1 12.7 278 14
2005-10-24 07:36:22 51°14.496 2°40.728 279.7 12.8 280 14
2005-10-24 07:36:27 51°14.501 2°40.701 281.7 12.9 283 14
2005-10-24 07:36:32 51°14.505 2°40.673 282.6 12.9 282 13.6
2005-10-24 07:36:37 51°14.509 2°40.645 283.6 12.8 284 13.6
2005-10-24 07:36:42 51°14.513 2°40.618 284 12.9 284 13.8
2005-10-24 07:36:47 51°14.517 2°40.59 284.2 12.8 283 13.9
2005-10-24 07:36:52 51°14.522 2°40.563 283.9 12.8 284 14.1
2005-10-24 07:36:57 51°14.526 2°40.535 284.6 12.9 283 14.1
2005-10-24 07:37:02 51°14.531 2°40.508 284.4 12.8 285 14.2
2005-10-24 07:37:07 51°14.535 2°40.48 285.2 12.9 284 14.2
2005-10-24 07:37:12 51°14.54 2°40.453 284.8 13 285 14.1
2005-10-24 07:37:17 51°14.544 2°40.425 285.4 12.9 286 13.9
2005-10-24 07:37:22 51°14.549 2°40.398 284.8 12.8 284 13.6
2005-10-24 07:37:27 51°14.554 2°40.371 285.2 12.8 285 13.4
2005-10-24 07:37:32 51°14.558 2°40.343 285.1 12.9 285 13.5
2005-10-24 07:37:37 51°14.563 2°40.316 285.6 12.9 285 13.6
2005-10-24 07:37:42 51°14.568 2°40.289 285.4 12.7 285 13.3
2005-10-24 07:37:47 51°14.572 2°40.261 284.9 12.8 284 13.2
2005-10-24 07:37:52 51°14.577 2°40.233 284.5 12.9 284 13.3
2005-10-24 07:37:57 51°14.581 2°40.206 284.8 12.8 285 13.3
2005-10-24 07:38:02 51°14.586 2°40.179 284.6 12.8 284 13.5
2005-10-24 07:38:07 51°14.59 2°40.151 284.3 12.9 285 13.4
2005-10-24 07:38:12 51°14.595 2°40.123 284.5 13 284 13.6
2005-10-24 07:38:17 51°14.599 2°40.096 284.9 12.8 285 13.8
2005-10-24 07:38:22 51°14.603 2°40.069 284.5 12.8 284 13.5
2005-10-24 07:38:27 51°14.608 2°40.042 284.5 12.9 285 13.5
2005-10-24 07:38:32 51°14.612 2°40.013 284 12.9 284 13.7
2005-10-24 07:38:37 51°14.617 2°39.986 284.7 12.9 286 13.7
2005-10-24 07:38:42 51°14.621 2°39.958 284.6 12.8 285 13.6
2005-10-24 07:38:47 51°14.626 2°39.932 283.5 12.9 284 14
2005-10-24 07:38:52 51°14.63 2°39.903 284.4 12.9 285 13.9
2005-10-24 07:38:57 51°14.634 2°39.876 284.8 12.8 284 14.3
2005-10-24 07:39:02 51°14.639 2°39.849 284.6 12.8 284 13.8
2005-10-24 07:39:07 51°14.643 2°39.821 284.4 12.8 284 14.1
2005-10-24 07:39:12 51°14.648 2°39.793 284.6 13 285 14.4
2005-10-24 07:39:17 51°14.652 2°39.766 284.9 12.8 284 14.4
2005-10-24 07:39:22 51°14.657 2°39.738 284.6 12.8 284 14.7
2005-10-24 07:39:27 51°14.661 2°39.711 284.7 13 284 15.2
2005-10-24 07:39:32 51°14.665 2°39.683 284.4 12.9 284 15
2005-10-24 07:39:37 51°14.669 2°39.655 284.1 12.9 284 15.2
2005-10-24 07:39:42 51°14.673 2°39.628 283.7 12.9 283 15.5
2005-10-24 07:39:47 51°14.678 2°39.6 283.8 12.9 284 15.4
2005-10-24 07:39:52 51°14.682 2°39.572 284.2 13 283 15.8
2005-10-24 07:39:57 51°14.686 2°39.545 284 12.9 284 15.8
2005-10-24 07:40:02 51°14.69 2°39.517 284.2 12.8 283 15.9
2005-10-24 07:40:07 51°14.695 2°39.49 284.2 12.9 285 15.8
2005-10-24 07:40:12 51°14.699 2°39.462 284.5 12.9 283 15.6
2005-10-24 07:40:17 51°14.703 2°39.435 284.3 12.8 284 15.9
2005-10-24 07:40:22 51°14.707 2°39.407 284.3 12.9 284 16
2005-10-24 07:40:27 51°14.712 2°39.379 284.1 12.9 283 16.7
2005-10-24 07:40:32 51°14.716 2°39.352 283.9 12.9 284 16.6
2005-10-24 07:40:37 51°14.72 2°39.324 284.5 12.9 284 16.6
2005-10-24 07:40:42 51°14.724 2°39.296 284.3 12.8 283 16.8
2005-10-24 07:40:47 51°14.729 2°39.269 283.9 12.9 284 17.5
2005-10-24 07:40:52 51°14.733 2°39.242 284.6 12.9 285 16.5
2005-10-24 07:40:57 51°14.738 2°39.214 285.1 12.8 285 16.4
2005-10-24 07:41:02 51°14.742 2°39.187 285 12.8 285 16.4
2005-10-24 07:41:07 51°14.747 2°39.159 284.9 12.8 284 16.7
2005-10-24 07:41:12 51°14.751 2°39.132 284.8 12.8 285 16.9
2005-10-24 07:41:17 51°14.756 2°39.104 284.4 12.9 284 17.2
2005-10-24 07:41:22 51°14.76 2°39.077 284.5 12.9 284 17
2005-10-24 07:41:27 51°14.765 2°39.05 284.3 12.8 284 16.7
2005-10-24 07:41:32 51°14.769 2°39.022 284.6 12.9 285 17.1
2005-10-24 07:41:37 51°14.774 2°38.994 284.9 12.9 285 17.3
2005-10-24 07:41:42 51°14.778 2°38.967 284.5 12.8 284 17.3
2005-10-24 07:41:47 51°14.782 2°38.939 283.8 12.8 283 17.3
2005-10-24 07:41:51 51°14.785 2°38.917 283.7 12.8 283 17.3
2005-10-24 07:41:57 51°14.791 2°38.884 283.8 12.8 283 17.4
2005-10-24 07:42:02 51°14.795 2°38.857 284.4 12.7 285 17.6
2005-10-24 07:42:07 51°14.8 2°38.829 284.7 12.7 286 17.3
2005-10-24 07:42:12 51°14.804 2°38.802 284.8 12.7 284 17.3
2005-10-24 07:42:17 51°14.809 2°38.775 284.5 12.8 284 17.6
2005-10-24 07:42:22 51°14.813 2°38.748 284.6 12.7 284 17.1
2005-10-24 07:42:27 51°14.818 2°38.721 284.5 12.7 285 17.7
2005-10-24 07:42:32 51°14.822 2°38.693 284.6 12.8 285 17.4
2005-10-24 07:42:37 51°14.827 2°38.666 284.5 12.8 284 17.7
2005-10-24 07:42:42 51°14.831 2°38.639 284.5 12.7 285 17.6
2005-10-24 07:42:47 51°14.835 2°38.611 284.2 12.8 284 17.4
2005-10-24 07:42:52 51°14.84 2°38.584 284.6 12.7 284 17.4
2005-10-24 07:42:57 51°14.844 2°38.558 284.5 12.7 285 17
2005-10-24 07:43:02 51°14.849 2°38.53 284.5 12.7 284 17.4
2005-10-24 07:43:07 51°14.853 2°38.503 284.5 12.7 284 17.3
2005-10-24 07:43:12 51°14.858 2°38.475 283.8 12.7 284 17.2
2005-10-24 07:43:17 51°14.862 2°38.448 284.3 12.7 285 17.3
2005-10-24 07:43:22 51°14.866 2°38.421 284.2 12.7 284 16.8
2005-10-24 07:43:27 51°14.871 2°38.394 283.8 12.7 284 17
2005-10-24 07:43:32 51°14.875 2°38.366 284.3 12.8 285 16.7
2005-10-24 07:43:37 51°14.88 2°38.339 284.5 12.7 284 16.6
2005-10-24 07:43:42 51°14.884 2°38.312 283.9 12.7 285 16.4
2005-10-24 07:43:47 51°14.888 2°38.284 283.8 12.7 284 16.2
2005-10-24 07:43:52 51°14.892 2°38.257 283.7 12.7 284 16.1
2005-10-24 07:43:57 51°14.897 2°38.23 283.5 12.8 283 16.3
2005-10-24 07:44:02 51°14.901 2°38.202 284 12.7 285 15.7
2005-10-24 07:44:07 51°14.905 2°38.174 283.6 12.7 284 15.6
2005-10-24 07:44:12 51°14.909 2°38.147 283.7 12.8 284 15.1
2005-10-24 07:44:17 51°14.914 2°38.12 283.6 12.8 284 14.9
2005-10-24 07:44:22 51°14.918 2°38.093 284 12.8 284 14.7
2005-10-24 07:44:27 51°14.922 2°38.065 283.8 12.8 284 14.1
2005-10-24 07:44:31 51°14.926 2°38.043 284.2 12.7 285 14
2005-10-24 07:44:37 51°14.931 2°38.01 284.3 12.8 285 13.9
2005-10-24 07:44:42 51°14.936 2°37.984 284.6 12.8 285 13.4
2005-10-24 07:44:47 51°14.94 2°37.956 284.1 12.7 286 12.6
2005-10-24 07:44:52 51°14.945 2°37.929 284 12.7 283 12.2
2005-10-24 07:44:57 51°14.949 2°37.902 284.2 12.6 285 11.8
2005-10-24 07:45:02 51°14.953 2°37.875 283.4 12.7 283 12.2
2005-10-24 07:45:07 51°14.957 2°37.848 284.5 12.6 284 11.9
2005-10-24 07:45:12 51°14.962 2°37.821 284 12.7 285 11.2
2005-10-24 07:45:17 51°14.966 2°37.794 284.6 12.8 285 11.9
2005-10-24 07:45:22 51°14.97 2°37.766 284.5 12.8 285 11.6
2005-10-24 07:45:27 51°14.975 2°37.739 284.5 12.6 285 11
2005-10-24 07:45:32 51°14.979 2°37.712 284.3 12.5 283 10.1
2005-10-24 07:45:37 51°14.983 2°37.685 283.7 12.6 284 11.4
2005-10-24 07:45:42 51°14.988 2°37.658 283.7 12.7 283 11.2
2005-10-24 07:45:47 51°14.992 2°37.631 284.6 12.7 284 10.7
2005-10-24 07:45:52 51°14.996 2°37.603 284.6 12.7 284 9.8
2005-10-24 07:45:57 51°15.001 2°37.576 284.6 12.8 284 11.3
2005-10-24 07:46:02 51°15.005 2°37.549 284.5 12.6 285 10.6
2005-10-24 07:46:07 51°15.01 2°37.522 284.3 12.7 285 10.1
2005-10-24 07:46:11 51°15.013 2°37.5 285 12.7 285 9.3
2005-10-24 07:46:17 51°15.018 2°37.468 284.2 12.5 284 11.1
2005-10-24 07:46:22 51°15.023 2°37.441 284.5 12.6 285 10.8
2005-10-24 07:46:27 51°15.028 2°37.413 284.6 12.8 285 10.7
2005-10-24 07:46:32 51°15.032 2°37.386 284.5 12.9 285 10.5
2005-10-24 07:46:37 51°15.036 2°37.359 284.6 12.7 285 10
2005-10-24 07:46:42 51°15.04 2°37.332 284.4 12.4 283 11.2
2005-10-24 07:46:47 51°15.045 2°37.305 283.7 12.7 284 11.2
2005-10-24 07:46:52 51°15.049 2°37.277 284.1 13 284 10.1
2005-10-24 07:46:57 51°15.054 2°37.249 284.8 12.9 284 11.5
2005-10-24 07:47:02 51°15.058 2°37.223 285 12.8 285 11.8
2005-10-24 07:47:07 51°15.063 2°37.195 284.7 12.8 284 11.6
2005-10-24 07:47:12 51°15.068 2°37.168 284.8 12.7 286 9.9
2005-10-24 07:47:17 51°15.072 2°37.141 283.9 12.7 283 10.9
2005-10-24 07:47:22 51°15.077 2°37.114 284.5 12.8 286 11.8
2005-10-24 07:47:27 51°15.081 2°37.086 285.2 12.7 285 11.3
2005-10-24 07:47:32 51°15.086 2°37.059 284.8 12.7 284 12.3
2005-10-24 07:47:37 51°15.09 2°37.032 283.9 12.7 285 12.1
2005-10-24 07:47:42 51°15.095 2°37.004 284.2 12.8 284 12.1
2005-10-24 07:47:47 51°15.099 2°36.977 284 12.8 284 12.1
2005-10-24 07:47:52 51°15.103 2°36.95 284.3 12.7 284 11
2005-10-24 07:47:57 51°15.108 2°36.922 284.5 12.8 285 13
2005-10-24 07:48:02 51°15.112 2°36.895 284.6 12.7 285 13.9
2005-10-24 07:48:07 51°15.116 2°36.867 283.7 12.9 283 14.2
2005-10-24 07:48:11 51°15.12 2°36.846 284.6 13 285 14.3
2005-10-24 07:48:17 51°15.125 2°36.812 284.5 12.8 284 14.6
2005-10-24 07:48:22 51°15.13 2°36.785 284.5 12.9 284 14.5
2005-10-24 07:48:27 51°15.134 2°36.758 285.2 12.7 285 14.8
2005-10-24 07:48:32 51°15.139 2°36.73 284.5 12.9 284 14.4
2005-10-24 07:48:37 51°15.143 2°36.703 285.8 12.8 286 14.5
2005-10-24 07:48:42 51°15.148 2°36.676 284.9 12.7 285 14.7
2005-10-24 07:48:47 51°15.152 2°36.648 284.9 12.8 285 14.7
2005-10-24 07:48:52 51°15.157 2°36.621 284.3 12.9 284 14.7
2005-10-24 07:48:57 51°15.161 2°36.594 284.2 12.8 284 14.5
2005-10-24 07:49:02 51°15.166 2°36.567 283.6 12.7 284 14.2
2005-10-24 07:49:07 51°15.171 2°36.539 285 12.8 285 14.6
2005-10-24 07:49:12 51°15.175 2°36.512 284.2 12.7 284 14.7
2005-10-24 07:49:17 51°15.179 2°36.485 284.9 12.7 285 15.1
2005-10-24 07:49:22 51°15.184 2°36.457 284.2 12.8 285 15.1
2005-10-24 07:49:27 51°15.188 2°36.43 284.4 12.9 285 15.7
2005-10-24 07:49:32 51°15.193 2°36.403 285.1 12.8 285 15.5
2005-10-24 07:49:37 51°15.198 2°36.375 285.2 12.8 285 16
2005-10-24 07:49:42 51°15.202 2°36.348 284.6 12.9 285 15.9
2005-10-24 07:49:47 51°15.207 2°36.321 285.9 12.8 287 16.2
2005-10-24 07:49:52 51°15.213 2°36.294 286.8 12.9 289 15.9
2005-10-24 07:49:57 51°15.219 2°36.267 287.9 12.9 289 16.3
2005-10-24 07:50:02 51°15.225 2°36.24 288.4 12.9 288 16.2
2005-10-24 07:50:07 51°15.23 2°36.213 288.7 12.9 288 16.7
2005-10-24 07:50:11 51°15.235 2°36.192 289.1 12.7 290 17
2005-10-24 07:50:17 51°15.243 2°36.159 289 12.8 289 16.7
2005-10-24 07:50:22 51°15.249 2°36.133 289.6 12.8 291 17.6
2005-10-24 07:50:27 51°15.255 2°36.107 289.4 12.7 291 17.3
2005-10-24 07:50:32 51°15.262 2°36.081 290.8 12.8 292 16.8
2005-10-24 07:50:37 51°15.269 2°36.054 291.7 12.8 293 17.5
2005-10-24 07:50:42 51°15.276 2°36.029 291.6 12.8 295 18
2005-10-24 07:50:47 51°15.284 2°36.003 294 12.8 295 17.6
2005-10-24 07:50:52 51°15.291 2°35.977 293.9 12.9 294 18.1
2005-10-24 07:50:57 51°15.299 2°35.951 294.4 13 295 19
2005-10-24 07:51:02 51°15.306 2°35.925 294.6 12.8 296 19.5
2005-10-24 07:51:07 51°15.314 2°35.899 294.6 12.9 295 20
2005-10-24 07:51:12 51°15.321 2°35.873 294.5 13 294 20.2
2005-10-24 07:51:17 51°15.329 2°35.847 294.6 13 295 21.5
2005-10-24 07:51:22 51°15.336 2°35.821 295 13 294 21.9
2005-10-24 07:51:27 51°15.344 2°35.795 294.9 12.9 295 22.5
2005-10-24 07:51:32 51°15.351 2°35.769 294.5 13 294 23.6
2005-10-24 07:51:37 51°15.359 2°35.743 294.4 12.9 295 23.7
2005-10-24 07:51:42 51°15.366 2°35.717 294.4 12.9 293 23.9
2005-10-24 07:51:47 51°15.373 2°35.691 294.1 12.9 294 24.7
2005-10-24 07:51:52 51°15.381 2°35.665 294.4 12.9 295 25
2005-10-24 07:51:57 51°15.389 2°35.64 294.9 12.9 295 25.3
2005-10-24 07:52:02 51°15.397 2°35.614 296.4 13 298 25.9
2005-10-24 07:52:07 51°15.406 2°35.589 297.7 12.9 298 26
2005-10-24 07:52:12 51°15.415 2°35.564 298.9 12.9 299 26.1
2005-10-24 07:52:17 51°15.424 2°35.539 299.4 13 299 26.1
2005-10-24 07:52:22 51°15.433 2°35.514 300.8 12.9 301 25.9
2005-10-24 07:52:27 51°15.442 2°35.49 300 12.9 300 26.3
2005-10-24 07:52:32 51°15.451 2°35.465 300.1 12.9 301 26.3
2005-10-24 07:52:37 51°15.46 2°35.441 300.3 12.9 300 26.2
2005-10-24 07:52:42 51°15.469 2°35.416 300.7 12.9 300 26.3
2005-10-24 07:52:47 51°15.477 2°35.391 299.1 12.9 299 26.3
2005-10-24 07:52:52 51°15.486 2°35.366 298.9 12.9 299 26.6
2005-10-24 07:52:57 51°15.495 2°35.341 299.5 12.9 300 26.6
2005-10-24 07:53:02 51°15.504 2°35.316 299 12.9 300 26.6
2005-10-24 07:53:07 51°15.512 2°35.291 299.4 12.9 298 26.5
2005-10-24 07:53:12 51°15.522 2°35.267 299.5 12.9 299 26.6
2005-10-24 07:53:17 51°15.53 2°35.242 299.7 13 299 26.6
2005-10-24 07:53:22 51°15.539 2°35.217 300.4 13 300 26.4
2005-10-24 07:53:27 51°15.548 2°35.192 299.7 12.9 298 26.5
2005-10-24 07:53:32 51°15.557 2°35.167 300.6 12.9 301 26.7
2005-10-24 07:53:37 51°15.565 2°35.142 299.2 12.9 299 26.6
2005-10-24 07:53:42 51°15.574 2°35.117 299.8 12.9 299 26.6
2005-10-24 07:53:47 51°15.583 2°35.092 300.2 12.9 298 26.5
2005-10-24 07:53:51 51°15.59 2°35.072 299.7 13 300 26.6
2005-10-24 07:53:57 51°15.6 2°35.042 299 12.9 297 26.7
2005-10-24 07:54:02 51°15.609 2°35.017 299.5 13 298 26.8
2005-10-24 07:54:07 51°15.617 2°34.992 298.8 12.9 298 26.6
2005-10-24 07:54:12 51°15.626 2°34.967 299 12.9 299 26.5
2005-10-24 07:54:17 51°15.634 2°34.941 299.2 12.9 299 26.6
2005-10-24 07:54:22 51°15.643 2°34.917 298.2 12.9 297 26.7
2005-10-24 07:54:27 51°15.651 2°34.892 298.3 12.9 296 26.7
2005-10-24 07:54:32 51°15.66 2°34.867 299.7 13 300 26.7
2005-10-24 07:54:37 51°15.669 2°34.842 299.7 12.9 299 26.5
2005-10-24 07:54:42 51°15.678 2°34.816 299.6 13 299 26.7
2005-10-24 07:54:47 51°15.686 2°34.792 299.6 13 299 26.6
2005-10-24 07:54:52 51°15.695 2°34.766 299 13 299 26.6
2005-10-24 07:54:57 51°15.703 2°34.741 298.8 12.9 300 26.4
2005-10-24 07:55:02 51°15.711 2°34.716 299.5 12.9 299 26.4
2005-10-24 07:55:07 51°15.72 2°34.691 298.9 12.9 299 26.2
2005-10-24 07:55:12 51°15.729 2°34.665 299.7 13 298 26.3
2005-10-24 07:55:17 51°15.738 2°34.64 299.6 13 298 26
2005-10-24 07:55:22 51°15.746 2°34.615 299.6 13 297 25.9
2005-10-24 07:55:27 51°15.755 2°34.59 299.5 13 299 26
2005-10-24 07:55:31 51°15.761 2°34.57 299.5 12.9 298 25.5
2005-10-24 07:55:37 51°15.771 2°34.539 299 12.9 297 25.4
2005-10-24 07:55:42 51°15.78 2°34.514 299 12.9 298 25
2005-10-24 07:55:47 51°15.787 2°34.489 299 13 297 24.6
2005-10-24 07:55:52 51°15.796 2°34.464 299.6 12.9 298 24.8
2005-10-24 07:55:57 51°15.804 2°34.438 299 13 298 24.7
2005-10-24 07:56:02 51°15.813 2°34.413 299.6 13 299 24
2005-10-24 07:56:07 51°15.822 2°34.389 299.9 12.9 299 24.4
2005-10-24 07:56:12 51°15.831 2°34.364 301.9 13 301 24.1
2005-10-24 07:56:17 51°15.84 2°34.339 302.5 12.9 301 22.9
2005-10-24 07:56:22 51°15.85 2°34.315 302.1 12.9 301 22.3
2005-10-24 07:56:27 51°15.859 2°34.29 302 13 299 21.7
2005-10-24 07:56:32 51°15.868 2°34.266 301.8 12.9 301 20.1
2005-10-24 07:56:37 51°15.877 2°34.241 301.4 13 301 19.2
2005-10-24 07:56:42 51°15.886 2°34.216 302 12.9 300 18.6
2005-10-24 07:56:47 51°15.895 2°34.192 301.9 13 300 17.8
2005-10-24 07:56:52 51°15.906 2°34.168 304.2 13 304 16.7
2005-10-24 07:56:57 51°15.916 2°34.145 305.8 12.9 303 16.4
2005-10-24 07:57:02 51°15.926 2°34.121 306.1 13.1 305 15.4
2005-10-24 07:57:07 51°15.937 2°34.098 307.4 13 307 14.4
2005-10-24 07:57:11 51°15.945 2°34.079 307.2 13 303 13.9
2005-10-24 07:57:17 51°15.958 2°34.052 307.8 13.1 308 12.8
2005-10-24 07:57:22 51°15.969 2°34.028 307.8 13.1 307 12.4
2005-10-24 07:57:27 51°15.979 2°34.006 308.1 12.9 307 12.7
2005-10-24 07:57:31 51°15.987 2°33.987 307.4 12.9 305 11.8
2005-10-24 07:57:37 51°16.001 2°33.959 308.3 13.2 309 11.4
2005-10-24 07:57:42 51°16.011 2°33.935 309.8 13.3 309 11.1
2005-10-24 07:57:47 51°16.023 2°33.914 308.5 12.9 310 10.7
2005-10-24 07:57:52 51°16.032 2°33.89 307.8 12.8 304 10
2005-10-24 07:57:57 51°16.044 2°33.868 307.4 12.9 304 10.5
2005-10-24 07:58:02 51°16.053 2°33.844 308.4 12.9 305 9.7
2005-10-24 07:58:07 51°16.065 2°33.822 308.4 13 309 10.7
2005-10-24 07:58:12 51°16.075 2°33.799 310.7 12.9 308 10.6
2005-10-24 07:58:17 51°16.087 2°33.777 308.4 12.8 306 9.9
2005-10-24 07:58:22 51°16.097 2°33.753 309.7 13 304 9.8
2005-10-24 07:58:27 51°16.109 2°33.731 310.9 13.1 311 9
2005-10-24 07:58:32 51°16.12 2°33.709 310.5 12.9 310 9.9
2005-10-24 07:58:37 51°16.131 2°33.687 311.8 12.9 309 9.3
2005-10-24 07:58:42 51°16.143 2°33.665 311.2 12.9 310 8.9
2005-10-24 07:58:47 51°16.154 2°33.642 311.2 13.1 307 9
2005-10-24 07:58:52 51°16.166 2°33.621 311.2 13.2 309 9.5
2005-10-24 07:58:57 51°16.176 2°33.598 312.2 13 312 9.8
2005-10-24 07:59:02 51°16.189 2°33.576 310.6 13 311 9
2005-10-24 07:59:07 51°16.2 2°33.553 311.5 13.3 308 8.3
2005-10-24 07:59:12 51°16.212 2°33.531 312.4 13.2 310 8.5
2005-10-24 07:59:17 51°16.222 2°33.508 311.8 12.9 307 9.8
2005-10-24 07:59:22 51°16.234 2°33.486 310.1 12.9 307 9.3
2005-10-24 07:59:27 51°16.245 2°33.463 311.3 13.1 308 8.3
2005-10-24 07:59:32 51°16.256 2°33.439 309.8 13.3 307 9.3
2005-10-24 07:59:37 51°16.268 2°33.416 310.6 13.3 309 9.1
2005-10-24 07:59:42 51°16.279 2°33.394 311.7 13 309 8.9
2005-10-24 07:59:47 51°16.29 2°33.372 310.5 13.1 308 10
2005-10-24 07:59:52 51°16.302 2°33.349 310.3 13.1 309 8.9
2005-10-24 07:59:57 51°16.315 2°33.329 312.5 13.4 310 11
2005-10-24 08:00:02 51°16.327 2°33.307 316.2 13.2 311 12.1
2005-10-24 08:00:07 51°16.34 2°33.286 314.5 13.2 312 12.8
2005-10-24 08:00:12 51°16.353 2°33.264 314.4 13.3 313 14.3
2005-10-24 08:00:17 51°16.366 2°33.243 316.8 13.5 314 16.6
2005-10-24 08:00:22 51°16.379 2°33.221 316.4 13.4 313 17.4
2005-10-24 08:00:27 51°16.391 2°33.2 316.9 13.3 315 18.7
2005-10-24 08:00:32 51°16.404 2°33.179 316.5 13.2 313 19.6
2005-10-24 08:00:37 51°16.416 2°33.157 317.1 13.2 314 20.7
2005-10-24 08:00:42 51°16.43 2°33.137 316.4 13.1 312 21.5
2005-10-24 08:00:47 51°16.442 2°33.116 317.1 13.2 315 22.4
2005-10-24 08:00:52 51°16.456 2°33.096 318.8 13.3 316 23.3
2005-10-24 08:00:57 51°16.468 2°33.074 318.3 13.2 314 24.2
2005-10-24 08:01:02 51°16.481 2°33.054 316.7 13.2 315 24.6
2005-10-24 08:01:07 51°16.493 2°33.033 316.3 13 312 25.3
2005-10-24 08:01:12 51°16.506 2°33.014 317.2 13 316 25.6
2005-10-24 08:01:17 51°16.519 2°32.993 316.5 13 313 25.7
2005-10-24 08:01:22 51°16.533 2°32.973 317.1 13.1 316 25.9
2005-10-24 08:01:27 51°16.545 2°32.951 318.3 13.2 314 26
2005-10-24 08:01:32 51°16.558 2°32.932 316.1 13 314 26.3
2005-10-24 08:01:37 51°16.571 2°32.912 316.9 13.2 317 26.2
2005-10-24 08:01:42 51°16.583 2°32.89 317.1 12.9 312 26.3
2005-10-24 08:01:47 51°16.596 2°32.871 315.7 12.9 312 26.3
2005-10-24 08:01:52 51°16.608 2°32.85 316.7 12.8 315 26.3
2005-10-24 08:01:57 51°16.622 2°32.831 317.9 13 318 26.1
2005-10-24 08:02:02 51°16.634 2°32.811 318.4 13 314 25.9
2005-10-24 08:02:07 51°16.648 2°32.79 316.1 13.1 315 25.4
2005-10-24 08:02:12 51°16.66 2°32.769 317.2 13.3 315 25.4
2005-10-24 08:02:17 51°16.673 2°32.748 314.9 13 312 24.9
2005-10-24 08:02:22 51°16.685 2°32.728 315.8 13 316 24.5
2005-10-24 08:02:27 51°16.698 2°32.708 316.4 13 316 24.5
2005-10-24 08:02:32 51°16.711 2°32.688 316.4 13 315 24.9
2005-10-24 08:02:37 51°16.724 2°32.668 316.9 13 315 24.9
2005-10-24 08:02:42 51°16.737 2°32.648 317.9 13 318 24.9
2005-10-24 08:02:47 51°16.751 2°32.629 318.6 13 318 24.8
2005-10-24 08:02:52 51°16.763 2°32.608 318.2 13 316 24.7
2005-10-24 08:02:57 51°16.777 2°32.588 317.9 13 316 24.9
2005-10-24 08:03:02 51°16.789 2°32.568 316.6 13 316 25.1
2005-10-24 08:03:07 51°16.802 2°32.547 315.2 13.1 316 25.1
2005-10-24 08:03:13 51°16.818 2°32.523 317.9 13.1 318 25.1
2005-10-24 08:03:17 51°16.828 2°32.507 316.1 13 314 25.3
2005-10-24 08:03:22 51°16.841 2°32.486 317.2 13 312 25.4
2005-10-24 08:03:27 51°16.854 2°32.466 317 13.1 315 25.2
2005-10-24 08:03:32 51°16.866 2°32.445 314.9 12.9 313 25.4
2005-10-24 08:03:37 51°16.879 2°32.426 315.9 13 316 25.3
2005-10-24 08:03:42 51°16.892 2°32.405 315.7 12.9 316 25.5
2005-10-24 08:03:47 51°16.905 2°32.386 317.6 13 316 25.7
2005-10-24 08:03:52 51°16.917 2°32.365 317.5 12.9 315 25.5
2005-10-24 08:03:57 51°16.931 2°32.346 316.6 13 314 25.7
2005-10-24 08:04:02 51°16.944 2°32.325 317.1 13 316 25.8
2005-10-24 08:04:07 51°16.956 2°32.305 316.6 13 313 25.8
2005-10-24 08:04:11 51°16.966 2°32.289 316.5 13 316 25.6
2005-10-24 08:04:17 51°16.981 2°32.264 316.7 13 315 26.1
2005-10-24 08:04:22 51°16.994 2°32.245 316.4 13 317 26.5
2005-10-24 08:04:27 51°17.007 2°32.224 316.8 13.1 315 27.1
2005-10-24 08:04:31 51°17.018 2°32.208 317.9 13.2 316 27.1
2005-10-24 08:04:37 51°17.033 2°32.183 317.2 13.2 314 27.7
2005-10-24 08:04:42 51°17.046 2°32.162 316.3 13.2 314 27.7
2005-10-24 08:04:47 51°17.058 2°32.142 315.6 13.1 314 27.7
2005-10-24 08:04:51 51°17.068 2°32.125 316.1 13.2 315 27.6
2005-10-24 08:04:57 51°17.084 2°32.1 316 13.1 313 27.1
2005-10-24 08:05:02 51°17.096 2°32.079 316.8 13.1 316 26.7
2005-10-24 08:05:07 51°17.109 2°32.059 317.5 13.1 316 26.8
2005-10-24 08:05:12 51°17.122 2°32.038 316.3 13.1 315 26.5
2005-10-24 08:05:17 51°17.135 2°32.018 315.5 13 312 27.1
2005-10-24 08:05:22 51°17.148 2°31.998 316.9 13 317 27.4